createdAt,value
2018-05-16T00:00:55.588Z,3.00
2018-05-16T00:03:23.665Z,2.90
2018-05-16T00:05:51.714Z,3.93
2018-05-16T00:08:20.487Z,3.40
2018-05-16T00:10:48.574Z,3.10
2018-05-16T00:13:16.674Z,2.47
2018-05-16T00:15:44.727Z,2.93
2018-05-16T00:18:13.529Z,2.70
2018-05-16T00:20:41.603Z,3.40
2018-05-16T00:23:09.711Z,2.93
2018-05-16T00:25:37.782Z,3.20
2018-05-16T00:28:05.877Z,3.23
2018-05-16T00:30:33.974Z,3.70
2018-05-16T00:33:02.823Z,2.63
2018-05-16T00:35:30.917Z,3.37
2018-05-16T00:37:58.994Z,3.47
2018-05-16T00:40:27.086Z,3.53
2018-05-16T00:42:55.206Z,3.70
2018-05-16T00:45:23.280Z,3.40
2018-05-16T00:47:51.378Z,3.10
2018-05-16T00:50:19.382Z,3.07
2018-05-16T00:52:47.490Z,2.73
2018-05-16T00:55:15.535Z,3.70
2018-05-16T00:57:43.654Z,4.10
2018-05-16T01:00:13.465Z,3.17
2018-05-16T01:02:41.527Z,3.53
2018-05-16T01:05:09.586Z,3.60
2018-05-16T01:07:37.668Z,3.70
2018-05-16T01:10:05.780Z,4.07
2018-05-16T01:12:33.846Z,3.47
2018-05-16T01:15:02.666Z,4.10
2018-05-16T01:17:30.737Z,3.43
2018-05-16T01:19:58.822Z,3.67
2018-05-16T01:22:26.854Z,3.83
2018-05-16T01:24:55.705Z,4.13
2018-05-16T01:27:23.822Z,4.37
2018-05-16T01:29:51.871Z,3.87
2018-05-16T01:32:19.914Z,4.87
2018-05-16T01:34:48.006Z,4.53
2018-05-16T01:37:16.200Z,4.37
2018-05-16T01:39:44.230Z,4.93
2018-05-16T01:42:12.274Z,5.07
2018-05-16T01:44:40.401Z,4.80
2018-05-16T01:47:08.498Z,3.63
2018-05-16T01:49:36.609Z,5.13
2018-05-16T01:52:04.668Z,5.10
2018-05-16T01:54:32.751Z,4.93
2018-05-16T01:57:00.809Z,5.47
2018-05-16T01:59:28.901Z,4.50
2018-05-16T02:01:57.034Z,5.80
2018-05-16T02:04:25.094Z,5.30
2018-05-16T02:06:53.982Z,4.57
2018-05-16T02:09:22.811Z,4.67
2018-05-16T02:11:50.890Z,4.53
2018-05-16T02:14:18.986Z,5.00
2018-05-16T02:16:48.144Z,4.80
2018-05-16T02:19:16.237Z,4.90
2018-05-16T02:21:44.323Z,4.97
2018-05-16T02:24:12.418Z,5.03
2018-05-16T02:26:41.258Z,5.03
2018-05-16T02:29:09.339Z,4.60
2018-05-16T02:31:37.433Z,4.40
2018-05-16T02:34:05.510Z,5.03
2018-05-16T02:36:33.577Z,4.80
2018-05-16T02:39:01.638Z,5.17
2018-05-16T02:41:29.745Z,4.43
2018-05-16T02:43:57.794Z,5.13
2018-05-16T02:46:25.850Z,4.57
2018-05-16T02:48:53.902Z,4.93
2018-05-16T02:51:21.991Z,4.63
2018-05-16T02:53:59.898Z,5.10
2018-05-16T02:56:27.994Z,3.93
2018-05-16T02:58:56.852Z,4.57
2018-05-16T03:01:24.897Z,4.93
2018-05-16T03:03:52.969Z,4.77
2018-05-16T03:06:21.004Z,4.77
2018-05-16T03:08:49.883Z,4.83
2018-05-16T03:11:17.959Z,4.70
2018-05-16T03:13:45.970Z,5.07
2018-05-16T03:16:14.086Z,5.13
2018-05-16T03:18:42.153Z,4.30
2018-05-16T03:21:11.754Z,4.33
2018-05-16T03:23:47.625Z,3.80
2018-05-16T03:26:15.714Z,3.93
2018-05-16T03:28:44.570Z,5.17
2018-05-16T03:31:13.555Z,5.03
2018-05-16T03:33:41.602Z,4.53
2018-05-16T03:36:09.658Z,4.57
2018-05-16T03:38:37.746Z,4.87
2018-05-16T03:41:05.786Z,4.70
2018-05-16T03:43:38.673Z,4.77
2018-05-16T03:46:06.768Z,5.37
2018-05-16T03:48:34.811Z,5.87
2018-05-16T03:51:02.862Z,5.33
2018-05-16T03:53:31.030Z,4.90
2018-05-16T03:55:59.899Z,4.80
2018-05-16T03:58:39.953Z,4.77
2018-05-16T04:01:21.987Z,4.50
2018-05-16T04:04:02.810Z,4.47
2018-05-16T04:06:30.890Z,4.23
2018-05-16T04:08:58.983Z,4.67
2018-05-16T04:11:27.034Z,4.10
2018-05-16T04:13:55.109Z,4.80
2018-05-16T04:16:24.006Z,3.97
2018-05-16T04:18:52.169Z,4.50
2018-05-16T04:21:20.263Z,4.63
2018-05-16T04:23:57.221Z,4.83
2018-05-16T04:26:25.329Z,4.20
2018-05-16T04:28:54.284Z,4.30
2018-05-16T04:31:22.277Z,4.27
2018-05-16T04:33:50.345Z,4.47
2018-05-16T04:36:18.418Z,4.40
2018-05-16T04:38:46.510Z,4.27
2018-05-16T04:41:15.401Z,4.23
2018-05-16T04:43:44.286Z,3.47
2018-05-16T04:46:13.091Z,3.63
2018-05-16T04:48:41.146Z,3.50
2018-05-16T04:51:10.007Z,4.33
2018-05-16T04:53:38.082Z,3.43
2018-05-16T04:56:06.130Z,3.87
2018-05-16T04:58:34.222Z,3.13
2018-05-16T05:03:54.297Z,3.00
2018-05-16T05:06:22.381Z,3.77
2018-05-16T05:08:50.548Z,3.03
2018-05-16T05:11:18.570Z,3.27
2018-05-16T05:13:47.403Z,2.97
2018-05-16T05:16:15.396Z,3.03
2018-05-16T05:18:44.343Z,2.60
2018-05-16T05:21:18.397Z,3.50
2018-05-16T05:23:46.478Z,2.77
2018-05-16T05:26:14.554Z,3.23
2018-05-16T05:28:42.610Z,3.57
2018-05-16T05:31:10.696Z,3.07
2018-05-16T05:33:38.791Z,3.77
2018-05-16T05:36:07.598Z,3.50
2018-05-16T05:38:35.694Z,3.13
2018-05-16T05:41:03.773Z,3.80
2018-05-16T05:43:31.835Z,3.70
2018-05-16T05:46:00.028Z,4.13
2018-05-16T05:48:28.118Z,3.87
2018-05-16T05:50:56.216Z,3.40
2018-05-16T05:53:24.260Z,4.17
2018-05-16T05:55:52.397Z,4.00
2018-05-16T05:58:20.443Z,4.63
2018-05-16T06:00:48.562Z,4.20
2018-05-16T06:03:16.607Z,3.30
2018-05-16T06:05:44.709Z,3.80
2018-05-16T06:08:12.771Z,4.33
2018-05-16T06:10:40.846Z,3.73
2018-05-16T06:13:08.935Z,3.93
2018-05-16T06:15:37.012Z,4.10
2018-05-16T06:18:05.090Z,4.37
2018-05-16T06:20:33.226Z,4.30
2018-05-16T06:23:01.283Z,4.07
2018-05-16T06:25:29.378Z,4.70
2018-05-16T06:27:58.434Z,4.43
2018-05-16T06:30:26.454Z,4.10
2018-05-16T06:32:54.542Z,4.50
2018-05-16T06:35:23.402Z,3.93
2018-05-16T06:37:51.484Z,4.20
2018-05-16T06:40:19.579Z,4.00
2018-05-16T06:42:47.613Z,4.73
2018-05-16T06:45:15.898Z,4.17
2018-05-16T06:47:43.947Z,4.37
2018-05-16T06:50:11.990Z,5.43
2018-05-16T06:52:40.039Z,4.57
2018-05-16T06:55:08.938Z,5.07
2018-05-16T06:57:37.786Z,4.87
2018-05-16T07:00:05.835Z,4.30
2018-05-16T07:02:33.938Z,4.40
2018-05-16T07:05:02.027Z,4.50
2018-05-16T07:07:31.834Z,4.53
2018-05-16T07:09:59.892Z,5.23
2018-05-16T07:12:27.974Z,4.50
2018-05-16T07:14:56.047Z,4.77
2018-05-16T07:17:24.130Z,4.93
2018-05-16T07:19:52.905Z,5.70
2018-05-16T07:22:20.990Z,4.97
2018-05-16T07:24:58.673Z,4.97
2018-05-16T07:27:26.758Z,4.57
2018-05-16T07:30:09.326Z,4.00
2018-05-16T07:32:56.128Z,4.80
2018-05-16T07:35:37.955Z,4.70
2018-05-16T07:38:06.092Z,5.03
2018-05-16T07:40:35.158Z,4.37
2018-05-16T07:43:03.462Z,4.27
2018-05-16T07:45:33.434Z,4.50
2018-05-16T07:48:02.438Z,4.53
2018-05-16T07:50:30.849Z,4.70
2018-05-16T07:52:58.939Z,4.10
2018-05-16T07:55:26.998Z,4.77
2018-05-16T07:58:04.998Z,4.10
2018-05-16T08:00:33.093Z,4.73
2018-05-16T08:03:12.271Z,5.23
2018-05-16T08:05:40.249Z,4.53
2018-05-16T08:08:19.399Z,4.53
2018-05-16T08:10:47.471Z,4.80
2018-05-16T08:13:16.482Z,4.27
2018-05-16T08:15:44.553Z,4.87
2018-05-16T08:18:12.654Z,4.93
2018-05-16T08:20:41.460Z,4.73
2018-05-16T08:23:10.264Z,4.10
2018-05-16T08:25:38.317Z,4.77
2018-05-16T08:28:12.900Z,4.47
2018-05-16T08:30:40.985Z,4.37
2018-05-16T08:33:28.699Z,3.77
2018-05-16T08:35:56.759Z,3.80
2018-05-16T08:38:24.850Z,4.40
2018-05-16T08:40:52.939Z,4.23
2018-05-16T08:43:20.998Z,5.10
2018-05-16T08:46:04.122Z,4.23
2018-05-16T08:48:32.167Z,4.60
2018-05-16T08:51:00.202Z,5.47
2018-05-16T08:53:28.300Z,4.60
2018-05-16T08:55:56.382Z,4.73
2018-05-16T08:58:24.432Z,4.63
2018-05-16T09:00:52.529Z,5.00
2018-05-16T09:03:24.398Z,4.60
2018-05-16T09:05:52.498Z,4.57
2018-05-16T09:08:20.555Z,4.90
2018-05-16T09:10:48.624Z,4.50
2018-05-16T09:13:16.968Z,5.10
2018-05-16T09:15:47.951Z,4.80
2018-05-16T09:18:21.275Z,4.80
2018-05-16T09:20:49.449Z,4.40
2018-05-16T09:23:17.639Z,4.53
2018-05-16T09:25:46.719Z,4.83
2018-05-16T09:28:14.816Z,5.47
2018-05-16T09:30:42.906Z,5.80
2018-05-16T09:33:10.985Z,5.03
2018-05-16T09:35:43.982Z,5.73
2018-05-16T09:38:12.966Z,4.77
2018-05-16T09:40:40.966Z,5.40
2018-05-16T09:43:18.647Z,4.80
2018-05-16T09:45:47.676Z,4.90
2018-05-16T09:51:06.736Z,5.20
2018-05-16T09:53:45.410Z,4.93
2018-05-16T09:56:13.518Z,5.00
2018-05-16T09:58:41.611Z,5.17
2018-05-16T10:01:10.442Z,5.60
2018-05-16T10:03:39.487Z,4.80
2018-05-16T10:06:19.097Z,5.27
2018-05-16T10:08:47.157Z,4.90
2018-05-16T10:11:16.178Z,5.33
2018-05-16T10:13:44.216Z,5.90
2018-05-16T10:16:12.310Z,5.57
2018-05-16T10:18:40.373Z,4.53
2018-05-16T10:21:23.403Z,5.27
2018-05-16T10:23:52.358Z,5.53
2018-05-16T10:26:21.114Z,5.17
2018-05-16T10:28:59.006Z,5.00
2018-05-16T10:31:27.806Z,5.60
2018-05-16T10:33:56.642Z,5.87
2018-05-16T10:36:24.708Z,5.83
2018-05-16T10:38:52.802Z,5.90
2018-05-16T10:41:27.701Z,5.40
2018-05-16T10:43:55.664Z,5.73
2018-05-16T10:46:23.741Z,5.27
2018-05-16T10:48:51.835Z,5.43
2018-05-16T10:51:19.902Z,5.77
2018-05-16T10:53:48.158Z,4.80
2018-05-16T10:56:22.117Z,4.53
2018-05-16T10:58:50.245Z,5.07
2018-05-16T11:01:24.418Z,4.67
2018-05-16T11:03:52.534Z,4.77
2018-05-16T11:06:21.579Z,4.07
2018-05-16T11:08:50.383Z,5.07
2018-05-16T11:11:18.498Z,5.03
2018-05-16T11:13:46.583Z,5.20
2018-05-16T11:16:14.657Z,4.83
2018-05-16T11:18:42.713Z,4.70
2018-05-16T11:21:10.769Z,5.63
2018-05-16T11:23:38.854Z,5.27
2018-05-16T11:26:06.952Z,4.43
2018-05-16T11:28:34.995Z,4.43
2018-05-16T11:31:09.094Z,3.80
2018-05-16T11:33:37.205Z,4.00
2018-05-16T11:36:05.255Z,3.80
2018-05-16T11:38:33.342Z,4.13
2018-05-16T11:41:01.431Z,3.40
2018-05-16T11:43:29.494Z,4.20
2018-05-16T11:46:04.296Z,4.07
2018-05-16T11:48:32.331Z,3.70
2018-05-16T11:51:00.370Z,3.87
2018-05-16T11:53:28.426Z,4.23
2018-05-16T11:56:01.581Z,3.90
2018-05-16T11:58:29.638Z,4.00
2018-05-16T12:00:57.740Z,3.70
2018-05-16T12:03:25.829Z,3.70
2018-05-16T12:05:53.917Z,3.40
2018-05-16T12:08:22.007Z,3.20
2018-05-16T12:10:50.811Z,3.57
2018-05-16T12:13:18.917Z,4.40
2018-05-16T12:15:46.979Z,3.67
2018-05-16T12:18:15.011Z,4.03
2018-05-16T12:20:43.839Z,4.47
2018-05-16T12:23:11.874Z,4.60
2018-05-16T12:25:40.010Z,4.70
2018-05-16T12:28:08.101Z,4.17
2018-05-16T12:30:36.916Z,4.97
2018-05-16T12:33:04.960Z,4.20
2018-05-16T12:35:33.781Z,4.10
2018-05-16T12:38:01.823Z,4.27
2018-05-16T12:40:30.630Z,3.80
2018-05-16T12:43:11.395Z,4.47
2018-05-16T12:45:40.251Z,3.67
2018-05-16T12:48:08.330Z,3.73
2018-05-16T12:50:41.226Z,3.87
2018-05-16T12:53:10.062Z,3.80
2018-05-16T12:55:38.128Z,4.40
2018-05-16T12:58:06.168Z,4.10
2018-05-16T13:00:34.994Z,3.90
2018-05-16T13:03:03.034Z,4.00
2018-05-16T13:05:31.115Z,4.17
2018-05-16T13:07:59.193Z,4.40
2018-05-16T13:10:31.300Z,4.20
2018-05-16T13:12:59.485Z,4.77
2018-05-16T13:15:27.478Z,4.27
2018-05-16T13:18:08.424Z,4.77
2018-05-16T13:20:36.450Z,4.20
2018-05-16T13:23:04.530Z,3.90
2018-05-16T13:25:38.467Z,4.03
2018-05-16T13:28:06.531Z,3.97
2018-05-16T13:30:34.580Z,4.10
2018-05-16T13:33:09.459Z,4.67
2018-05-16T13:35:37.588Z,5.10
2018-05-16T13:38:07.598Z,7.53
2018-05-16T13:40:35.687Z,5.47
2018-05-16T13:43:03.790Z,5.37
2018-05-16T13:45:37.970Z,5.63
2018-05-16T13:48:06.018Z,5.07
2018-05-16T13:50:44.067Z,5.00
2018-05-16T13:53:12.124Z,4.90
2018-05-16T13:55:40.210Z,4.57
2018-05-16T13:58:08.287Z,4.73
2018-05-16T14:00:36.343Z,4.20
2018-05-16T14:03:04.394Z,4.10
2018-05-16T14:05:33.459Z,4.17
2018-05-16T14:08:01.506Z,4.47
2018-05-16T14:10:30.323Z,3.70
2018-05-16T14:12:58.355Z,3.70
2018-05-16T14:15:26.423Z,4.03
2018-05-16T14:17:54.466Z,3.30
2018-05-16T14:20:22.553Z,3.70
2018-05-16T14:22:50.619Z,3.67
2018-05-16T14:25:18.693Z,3.80
2018-05-16T14:27:46.725Z,4.30
2018-05-16T14:30:14.796Z,3.80
2018-05-16T14:32:42.880Z,3.90
2018-05-16T14:35:11.970Z,3.60
2018-05-16T14:37:40.067Z,4.07
2018-05-16T14:40:10.178Z,4.17
2018-05-16T14:42:38.259Z,3.77
2018-05-16T14:45:18.227Z,3.97
2018-05-16T14:47:46.325Z,3.40
2018-05-16T14:50:19.205Z,3.27
2018-05-16T14:52:48.035Z,3.77
2018-05-16T14:55:25.140Z,4.17
2018-05-16T14:57:53.139Z,4.50
2018-05-16T15:00:39.895Z,4.07
2018-05-16T15:03:16.988Z,3.80
2018-05-16T15:05:47.053Z,3.83
2018-05-16T15:08:17.071Z,4.03
2018-05-16T15:10:45.929Z,4.13
2018-05-16T15:13:27.823Z,3.60
2018-05-16T15:15:55.913Z,4.40
2018-05-16T15:18:41.610Z,4.90
2018-05-16T15:21:19.630Z,4.30
2018-05-16T15:23:47.673Z,3.70
2018-05-16T15:26:15.768Z,3.73
2018-05-16T15:28:44.614Z,4.07
2018-05-16T15:31:35.574Z,4.57
2018-05-16T15:34:03.647Z,3.70
2018-05-16T15:36:31.721Z,3.67
2018-05-16T15:38:59.838Z,3.27
2018-05-16T15:41:27.938Z,3.23
2018-05-16T15:43:56.015Z,2.70
2018-05-16T15:46:24.878Z,3.07
2018-05-16T15:48:52.982Z,3.70
2018-05-16T15:51:23.291Z,3.27
2018-05-16T15:53:51.377Z,2.60
2018-05-16T15:56:20.205Z,3.50
2018-05-16T15:58:50.266Z,3.77
2018-05-16T16:01:21.302Z,3.00
2018-05-16T16:03:55.114Z,4.33
2018-05-16T16:06:23.187Z,3.70
2018-05-16T16:08:51.271Z,3.77
2018-05-16T16:11:20.090Z,3.20
2018-05-16T16:13:48.226Z,2.97
2018-05-16T16:16:16.306Z,3.07
2018-05-16T16:18:45.159Z,3.17
2018-05-16T16:21:13.930Z,3.40
2018-05-16T16:23:42.851Z,3.33
2018-05-16T16:26:10.922Z,3.20
2018-05-16T16:28:38.955Z,2.80
2018-05-16T16:31:07.048Z,3.30
2018-05-16T16:33:35.863Z,3.17
2018-05-16T16:36:15.484Z,3.07
2018-05-16T16:38:43.583Z,2.83
2018-05-16T16:41:12.394Z,3.63
2018-05-16T16:43:40.448Z,3.50
2018-05-16T16:46:08.526Z,2.90
2018-05-16T16:48:37.370Z,3.40
2018-05-16T16:51:05.464Z,3.57
2018-05-16T16:53:33.512Z,3.60
2018-05-16T16:56:01.577Z,3.20
2018-05-16T16:58:29.682Z,3.77
2018-05-16T17:00:58.654Z,3.13
2018-05-16T17:03:26.851Z,3.10
2018-05-16T17:05:54.937Z,3.27
2018-05-16T17:08:24.414Z,3.43
2018-05-16T17:10:52.521Z,3.70
2018-05-16T17:13:20.694Z,3.33
2018-05-16T17:15:48.766Z,3.60
2018-05-16T17:18:16.907Z,3.23
2018-05-16T17:20:44.985Z,3.33
2018-05-16T17:23:13.067Z,3.73
2018-05-16T17:25:41.886Z,3.57
2018-05-16T17:28:09.974Z,3.40
2018-05-16T17:30:38.322Z,3.17
2018-05-16T17:33:06.520Z,3.20
2018-05-16T17:35:34.551Z,3.63
2018-05-16T17:38:03.438Z,4.03
2018-05-16T17:40:31.539Z,3.20
2018-05-16T17:42:59.569Z,3.10
2018-05-16T17:45:27.665Z,3.80
2018-05-16T17:48:08.508Z,3.90
2018-05-16T17:50:36.597Z,3.37
2018-05-16T17:53:05.506Z,3.57
2018-05-16T17:55:33.595Z,3.37
2018-05-16T17:58:01.727Z,3.47
2018-05-16T18:00:29.786Z,3.67
2018-05-16T18:03:01.902Z,4.17
2018-05-16T18:05:29.989Z,4.00
2018-05-16T18:07:58.032Z,3.63
2018-05-16T18:10:26.139Z,3.90
2018-05-16T18:16:08.798Z,3.57
2018-05-16T18:18:36.843Z,3.47
2018-05-16T18:21:04.885Z,3.03
2018-05-16T18:23:34.769Z,3.70
2018-05-16T18:26:02.826Z,3.20
2018-05-16T18:28:30.899Z,3.90
2018-05-16T18:30:58.973Z,4.00
2018-05-16T18:33:27.019Z,4.07
2018-05-16T18:35:55.097Z,3.70
2018-05-16T18:38:24.142Z,3.53
2018-05-16T18:40:52.206Z,3.70
2018-05-16T18:43:20.262Z,3.77
2018-05-16T18:45:48.306Z,3.83
2018-05-16T18:48:16.418Z,3.63
2018-05-16T18:50:44.461Z,3.77
2018-05-16T18:55:46.912Z,3.90
2018-05-16T18:58:14.999Z,3.83
2018-05-16T19:00:43.108Z,4.13
2018-05-16T19:03:11.178Z,3.53
2018-05-16T19:05:39.324Z,3.83
2018-05-16T19:08:07.295Z,3.90
2018-05-16T19:10:35.333Z,3.67
2018-05-16T19:13:03.419Z,3.57
2018-05-16T19:15:31.477Z,3.43
2018-05-16T19:17:59.516Z,3.83
2018-05-16T19:20:29.634Z,3.97
2018-05-16T19:22:57.730Z,3.87
2018-05-16T19:25:25.769Z,3.60
2018-05-16T19:27:53.833Z,3.83
2018-05-16T19:30:21.918Z,4.00
2018-05-16T19:32:49.994Z,4.00
2018-05-16T19:35:18.030Z,4.20
2018-05-16T19:37:46.118Z,4.17
2018-05-16T19:40:14.162Z,3.53
2018-05-16T19:42:42.198Z,4.30
2018-05-16T19:45:10.304Z,4.60
2018-05-16T19:47:39.185Z,4.63
2018-05-16T19:50:07.247Z,4.30
2018-05-16T19:52:35.286Z,4.03
2018-05-16T19:55:03.366Z,3.90
2018-05-16T19:57:31.451Z,4.10
2018-05-16T19:59:59.564Z,4.30
2018-05-16T20:02:27.590Z,4.40
2018-05-16T20:04:55.662Z,3.80
2018-05-16T20:07:23.694Z,4.23
2018-05-16T20:09:51.778Z,4.27
2018-05-16T20:12:19.825Z,4.83
2018-05-16T20:14:47.924Z,4.87
2018-05-16T20:17:15.925Z,4.50
2018-05-16T20:19:44.008Z,4.17
2018-05-16T20:22:12.017Z,4.70
2018-05-16T20:24:40.079Z,4.17
2018-05-16T20:27:08.141Z,4.90
2018-05-16T20:29:36.178Z,4.47
2018-05-16T20:32:04.239Z,4.97
2018-05-16T20:34:32.288Z,4.40
2018-05-16T20:37:00.330Z,4.53
2018-05-16T20:39:29.175Z,4.77
2018-05-16T20:41:57.220Z,4.60
2018-05-16T20:44:25.270Z,4.17
2018-05-16T20:46:54.074Z,4.33
2018-05-16T20:49:22.175Z,4.40
2018-05-16T20:51:50.214Z,4.83
2018-05-16T20:54:18.253Z,4.70
2018-05-16T20:56:46.322Z,4.80
2018-05-16T20:59:14.377Z,3.80
2018-05-16T21:01:42.421Z,4.70
2018-05-16T21:04:10.463Z,4.40
2018-05-16T21:06:38.517Z,4.97
2018-05-16T21:09:07.359Z,4.87
2018-05-16T21:11:35.413Z,4.60
2018-05-16T21:14:03.454Z,4.57
2018-05-16T21:16:31.546Z,5.13
2018-05-16T21:18:59.657Z,6.03
2018-05-16T21:21:28.457Z,5.10
2018-05-16T21:23:56.516Z,6.07
2018-05-16T21:26:25.334Z,6.30
2018-05-16T21:28:53.382Z,5.50
2018-05-16T21:31:21.426Z,6.13
2018-05-16T21:33:49.473Z,5.90
2018-05-16T21:36:18.279Z,5.77
2018-05-16T21:38:46.317Z,6.70
2018-05-16T21:41:15.197Z,6.30
2018-05-16T21:43:43.253Z,6.60
2018-05-16T21:46:11.349Z,6.83
2018-05-16T21:48:39.434Z,6.43
2018-05-16T21:51:07.494Z,6.20
2018-05-16T21:53:35.553Z,6.87
2018-05-16T21:56:03.591Z,7.27
2018-05-16T21:58:31.664Z,6.67
2018-05-16T22:00:59.715Z,6.70
2018-05-16T22:03:27.774Z,7.10
2018-05-16T22:05:56.634Z,7.20
2018-05-16T22:08:24.681Z,7.20
2018-05-16T22:10:52.759Z,6.70
2018-05-16T22:13:20.783Z,7.00
2018-05-16T22:15:49.607Z,7.00
2018-05-16T22:18:17.645Z,6.50
2018-05-16T22:20:45.705Z,6.60
2018-05-16T22:23:15.674Z,6.93
2018-05-16T22:25:43.736Z,7.00
2018-05-16T22:28:11.833Z,7.77
2018-05-16T22:30:46.395Z,6.03
2018-05-16T22:33:20.150Z,6.67
2018-05-16T22:35:53.900Z,7.13
2018-05-16T22:38:27.514Z,7.53
2018-05-16T22:41:01.270Z,7.43
2018-05-16T22:46:34.150Z,7.57
2018-05-16T22:49:02.210Z,7.73
2018-05-16T22:51:30.245Z,8.03
2018-05-16T22:53:58.290Z,8.07
2018-05-16T22:56:26.340Z,7.10
2018-05-16T22:58:54.390Z,7.33
2018-05-16T23:01:25.190Z,7.50
2018-05-16T23:03:53.239Z,7.83
2018-05-16T23:06:21.328Z,7.60
2018-05-16T23:08:49.358Z,7.07
2018-05-16T23:11:17.416Z,7.97
2018-05-16T23:13:46.231Z,7.33
2018-05-16T23:16:14.266Z,7.27
2018-05-16T23:18:42.309Z,7.67
2018-05-16T23:21:10.434Z,7.83
2018-05-16T23:23:38.470Z,8.13
2018-05-16T23:26:06.517Z,8.20
2018-05-16T23:28:34.591Z,7.93
2018-05-16T23:31:02.645Z,8.10
2018-05-16T23:33:30.690Z,8.07
2018-05-16T23:35:58.744Z,7.57
2018-05-16T23:38:27.570Z,8.13
2018-05-16T23:40:55.640Z,8.33
2018-05-16T23:43:23.686Z,8.30
2018-05-16T23:45:51.725Z,8.03
2018-05-16T23:48:19.771Z,8.13
2018-05-16T23:50:47.876Z,8.03
2018-05-16T23:53:15.909Z,8.27
2018-05-16T23:55:43.950Z,7.53
2018-05-16T23:58:12.026Z,8.47
